Terminal Aerodrome Forecast
Issued by NWS

Home | Current Version | Previous Version | Text Only | Print | Product List | Glossary On
Versions: 1 2 3 4 5 6 7 8 9 10 11 12 13
000
FTUS42 KMLB 240538
TAFTIX
TAF
KTIX 240538Z 2406/2506 21008KT P6SM SCT120 OVC250
     FM241400 22014G22KT P6SM SCT030 BKN060
      TEMPO 2415/2418 VRB15G30KT 2SM TSRA BKN025CB
     FM241800 24017G24KT 5SM RA SCT020 OVC040
      TEMPO 2418/2421 3SM TSRA BKN020CB OVC030
     FM242100 23017G25KT P6SM SCT030 OVC060
      TEMPO 2421/2424 5SM RA BKN025 OVC050
     FM250000 21013KT P6SM SCT030 OVC050
      AMD NOT SKED TIL 241100=

USA.gov is the U.S. government's official web portal to all federal, state and local government web resources and services.